Time;durP1;ratioP1;P1;durP2;ratioP2;P2;SDS_P1;SDS_P2;PMS_P1;PMS_P2;Temp;Humidity;BMP_temperature;BMP_pressure;BME280_temperature;BME280_humidity;BME280_pressure;Samples;Min_cycle;Max_cycle;Signal;HPM_P1;HPM_P2
2023/02/16 00:25:47;;;;;;;;;;;;;;;;;;;;;
2023/02/16 00:28:22;;;;;;;;;;;;;;;;;;6220693;23;19915;-95
2023/02/16 00:31:06;;;;;;;;;;;;;;;;;;6196069;23;19916;-95
2023/02/16 00:36:23;;;;;;;;;;;;;;;;;;6248345;23;19915;-96
2023/02/16 00:39:05;;;;;;;;;;;;;;;;;;;;;
2023/02/16 00:41:52;;;;;;;;;;;;;;;;;;6248193;23;20302;-95
2023/02/16 00:44:46;;;;;;;;;;;;;;;;;;;;;
2023/02/16 00:47:18;;;;;;;;;;;;;;;;;;;;;
2023/02/16 01:01:35;;;;;;;;;;;;;;;;;;6210429;23;19962;-95
2023/02/16 01:04:22;;;;;;;;;;;;;;;;;;6221564;23;19916;-96
2023/02/16 01:12:31;;;;;;;;;;;;;;;;;;6221683;23;19922;-95
2023/02/16 01:15:09;;;;;;;;;;;;;;;;;;6221962;23;19915;-94
2023/02/16 01:20:29;;;;;;;;;;;;;;;;;;6204826;23;19919;-95
2023/02/16 03:12:58;;;;;;;;;;;;;;;;;;6256936;22;19923;-95
2023/02/16 03:15:34;;;;;;;;;;;;;;;;;;;;;
2023/02/16 03:29:30;;;;;;;;;;;;;;;;;;6251468;22;19946;-94
2023/02/16 03:32:02;;;;;;;;;;;;;;;;;;6217822;23;19924;-94
2023/02/16 03:34:39;;;;;;;;;;;;;;;;;;;;;
2023/02/16 03:37:16;;;;;;;;;;;;;;;;;;6223734;23;19916;-94
2023/02/16 03:42:35;;;;;;;;;;;;;;;;;;6222622;23;19922;-95
2023/02/16 06:07:46;;;;;;;;;;;;;;;;;;6186363;23;19964;-95
2023/02/16 06:10:14;;;;;;;;;;;;;;;;;;6132588;23;19916;-96
2023/02/16 06:12:42;;;;;;;;;;;;;;;;;;6156939;23;19916;-95
2023/02/16 06:15:30;;;;;;;;;;;;;;;;;;6132349;23;19921;-94
2023/02/16 06:17:55;;;;;;;;;;;;;;;;;;6157877;23;20318;-95
2023/02/16 06:20:21;;;;;;;;;;;;;;;;;;6132130;23;20418;-94
2023/02/16 06:22:57;;;;;;;;;;;;;;;;;;;;;
2023/02/16 06:25:26;;;;;;;;;;;;;;;;;;6158037;23;20342;-94
2023/02/16 06:27:55;;;;;;;;;;;;;;;;;;6133010;23;19995;-94
2023/02/16 06:30:31;;;;;;;;;;;;;;;;;;;;;
2023/02/16 06:33:05;;;;;;;;;;;;;;;;;;6156773;23;20323;-95
2023/02/16 06:35:58;;;;;;;;;;;;;;;;;;6133327;23;19991;-94
2023/02/16 06:38:41;;;;;;;;;;;;;;;;;;6156058;23;20254;-95
2023/02/16 06:41:29;;;;;;;;;;;;;;;;;;6132845;23;19916;-95
2023/02/16 06:44:09;;;;;;;;;;;;;;;;;;6157084;23;19943;-94
2023/02/16 06:46:38;;;;;;;;;;;;;;;;;;6157027;23;19917;-95
2023/02/16 06:49:04;;;;;;;;;;;;;;;;;;6156766;23;19920;-95
2023/02/16 06:51:32;;;;;;;;;;;;;;;;;;6156788;23;20297;-95
2023/02/16 06:54:01;;;;;;;;;;;;;;;;;;6157063;23;19924;-95
2023/02/16 06:56:29;;;;;;;;;;;;;;;;;;6132068;23;19920;-95
2023/02/16 06:58:58;;;;;;;;;;;;;;;;;;6132319;23;19923;-94
2023/02/16 07:01:32;;;;;;;;;;;;;;;;;;6157190;23;19971;-95
2023/02/16 07:04:00;;;;;;;;;;;;;;;;;;6131892;23;19916;-96
2023/02/16 07:06:29;;;;;;;;;;;;;;;;;;6157025;23;19924;-95
2023/02/16 07:08:58;;;;;;;;;;;;;;;;;;6132394;23;19921;-95
2023/02/16 07:11:30;;;;;;;;;;;;;;;;;;6135567;23;19916;-95
2023/02/16 07:13:56;;;;;;;;;;;;;;;;;;6131586;23;19917;-92
2023/02/16 07:16:22;;;;;;;;;;;;;;;;;;6131552;23;19916;-90
2023/02/16 07:18:48;;;;;;;;;;;;;;;;;;6132297;23;19988;-94
2023/02/16 07:21:14;;;;;;;;;;;;;;;;;;6156027;23;20365;-93
2023/02/16 07:23:40;;;;;;;;;;;;;;;;;;6132020;23;19921;-95
2023/02/16 07:26:09;;;;;;;;;;;;;;;;;;6156411;23;19904;-94
2023/02/16 07:28:35;;;;;;;;;;;;;;;;;;6131658;23;19917;-95
2023/02/16 07:31:03;;;;;;;;;;;;;;;;;;6131656;23;19917;-95
2023/02/16 07:33:29;;;;;;;;;;;;;;;;;;6155179;23;19920;-95
2023/02/16 07:36:07;;;;;;;;;;;;;;;;;;6134013;23;19917;-96
2023/02/16 07:38:35;;;;;;;;;;;;;;;;;;6134813;23;19987;-95
2023/02/16 07:41:05;;;;;;;;;;;;;;;;;;6157537;23;20330;-94
2023/02/16 07:43:34;;;;;;;;;;;;;;;;;;6134362;23;19920;-96
2023/02/16 07:46:08;;;;;;;;;;;;;;;;;;6161370;23;19916;-96
2023/02/16 07:48:37;;;;;;;;;;;;;;;;;;6165640;23;19916;-94
2023/02/16 07:51:13;;;;;;;;;;;;;;;;;;;;;
2023/02/16 07:53:45;;;;;;;;;;;;;;;;;;6160731;23;19925;-95
2023/02/16 07:56:11;;;;;;;;;;;;;;;;;;6130699;23;19917;-92
2023/02/16 07:58:37;;;;;;;;;;;;;;;;;;6128652;23;19920;-95
2023/02/16 08:01:03;;;;;;;;;;;;;;;;;;6155105;23;19917;-92
2023/02/16 08:03:29;;;;;;;;;;;;;;;;;;6130788;23;19929;-91
2023/02/16 08:05:57;;;;;;;;;;;;;;;;;;6130731;23;19917;-93
2023/02/16 08:08:23;;;;;;;;;;;;;;;;;;6133793;23;20338;-93
2023/02/16 08:10:49;;;;;;;;;;;;;;;;;;6156383;23;19924;-93
2023/02/16 08:13:15;;;;;;;;;;;;;;;;;;6131128;23;19917;-91
2023/02/16 08:15:42;;;;;;;;;;;;;;;;;;6154888;23;19917;-90
2023/02/16 08:18:08;;;;;;;;;;;;;;;;;;6130340;23;19920;-89
2023/02/16 08:20:33;;;;;;;;;;;;;;;;;;6130710;23;19916;-93
2023/02/16 08:23:06;;;;;;;;;;;;;;;;;;6155621;23;20275;-93
2023/02/16 08:25:35;;;;;;;;;;;;;;;;;;6130833;23;19923;-93
2023/02/16 08:28:01;;;;;;;;;;;;;;;;;;6129495;23;19917;-90
2023/02/16 08:30:27;;;;;;;;;;;;;;;;;;6130266;23;19924;-91
2023/02/16 08:32:55;;;;;;;;;;;;;;;;;;6130750;23;19923;-91
2023/02/16 08:35:21;;;;;;;;;;;;;;;;;;6154875;23;19917;-88
2023/02/16 08:37:47;;;;;;;;;;;;;;;;;;6129308;23;19963;-89
2023/02/16 08:40:13;;;;;;;;;;;;;;;;;;6154313;23;19995;-91
2023/02/16 08:42:42;;;;;;;;;;;;;;;;;;6154270;23;20293;-92
2023/02/16 08:45:08;;;;;;;;;;;;;;;;;;6130140;23;19995;-91
2023/02/16 08:47:35;;;;;;;;;;;;;;;;;;6154529;23;20348;-91
2023/02/16 08:50:04;;;;;;;;;;;;;;;;;;6131395;23;19917;-91
2023/02/16 08:52:30;;;;;;;;;;;;;;;;;;6131872;23;19940;-90
2023/02/16 08:54:56;;;;;;;;;;;;;;;;;;6130403;23;19916;-90
2023/02/16 08:57:22;;;;;;;;;;;;;;;;;;6154969;23;19916;-91
2023/02/16 09:00:32;;;;;;;;;;;;;;;;;;6130255;23;19923;-93
2023/02/16 09:02:33;;;;;;;;;;;;;;;;;;6155844;23;19921;-95
2023/02/16 09:04:59;;;;;;;;;;;;;;;;;;6131879;23;20052;-92
2023/02/16 09:07:25;;;;;;;;;;;;;;;;;;6155040;23;20161;-91
2023/02/16 09:09:52;;;;;;;;;;;;;;;;;;6154859;23;19921;-94
2023/02/16 09:12:18;;;;;;;;;;;;;;;;;;6130675;23;19939;-94
2023/02/16 09:14:44;;;;;;;;;;;;;;;;;;6130101;23;20000;-94
2023/02/16 09:17:11;;;;;;;;;;;;;;;;;;6130744;23;19917;-93
2023/02/16 09:19:37;;;;;;;;;;;;;;;;;;6155229;23;19921;-94
2023/02/16 09:22:03;;;;;;;;;;;;;;;;;;6130691;23;19955;-95
2023/02/16 09:24:29;;;;;;;;;;;;;;;;;;6130415;23;20294;-93
2023/02/16 09:26:55;;;;;;;;;;;;;;;;;;6130461;23;19971;-94
2023/02/16 09:29:21;;;;;;;;;;;;;;;;;;6155232;23;19917;-94
2023/02/16 09:31:48;;;;;;;;;;;;;;;;;;6130828;23;20022;-94
2023/02/16 09:34:15;;;;;;;;;;;;;;;;;;6130730;23;19991;-94
2023/02/16 09:36:41;;;;;;;;;;;;;;;;;;6130899;23;19916;-94
2023/02/16 09:39:07;;;;;;;;;;;;;;;;;;6154901;23;20345;-94
2023/02/16 09:41:33;;;;;;;;;;;;;;;;;;6130621;23;19927;-94
2023/02/16 09:49:45;;;;;;;;;;;;;;;;;;6234914;22;19926;-95
2023/02/16 09:52:13;;;;;;;;;;;;;;;;;;6225300;23;20261;-92
2023/02/16 09:54:40;;;;;;;;;;;;;;;;;;6221806;23;19916;-92
2023/02/16 09:57:07;;;;;;;;;;;;;;;;;;6196073;23;20296;-92
2023/02/16 09:59:33;;;;;;;;;;;;;;;;;;6196805;23;19919;-92
2023/02/16 10:01:59;;;;;;;;;;;;;;;;;;6200291;23;19998;-90
2023/02/16 10:25:26;;;;;;;;;;;;;;;;;;;;;
2023/02/16 10:58:41;;;;;;;;;;;;;;;;;;;;;
2023/02/16 11:01:26;;;;;;;;;;;;;;;;;;6287587;22;19954;-94
2023/02/16 11:03:55;;;;;;;;;;;;;;;;;;6260071;22;20334;-95
2023/02/16 11:09:10;;;;;;;;;;;;;;;;;;6249438;22;19986;-96
2023/02/16 11:11:49;;;;;;;;;;;;;;;;;;;;;
2023/02/16 11:20:02;;;;;;;;;;;;;;;;;;;;;
2023/02/16 11:22:34;;;;;;;;;;;;;;;;;;6286536;22;19935;-95
2023/02/16 11:26:00;;;;;;;;;;;;;;;;;;;;;
2023/02/16 11:28:23;;;;;;;;;;;;;;;;;;6256852;22;19961;-95
2023/02/16 11:30:55;;;;;;;;;;;;;;;;;;6235021;22;19915;-95
2023/02/16 11:33:29;;;;;;;;;;;;;;;;;;6234784;22;19915;-96
2023/02/16 11:41:38;;;;;;;;;;;;;;;;;;6259491;22;19919;-95
2023/02/16 11:44:17;;;;;;;;;;;;;;;;;;6235611;22;19929;-95
2023/02/16 11:47:02;;;;;;;;;;;;;;;;;;;;;
2023/02/16 11:49:50;;;;;;;;;;;;;;;;;;;;;
2023/02/16 11:55:21;;;;;;;;;;;;;;;;;;6218063;22;19923;-95
2023/02/16 11:58:00;;;;;;;;;;;;;;;;;;;;;
2023/02/16 12:00:51;;;;;;;;;;;;;;;;;;6253965;22;20425;-96
2023/02/16 12:11:45;;;;;;;;;;;;;;;;;;6268265;22;20400;-96
2023/02/16 12:17:15;;;;;;;;;;;;;;;;;;;;;
2023/02/16 12:20:15;;;;;;;;;;;;;;;;;;;;;
2023/02/16 12:25:45;;;;;;;;;;;;;;;;;;;;;
2023/02/16 12:28:24;;;;;;;;;;;;;;;;;;6253403;22;19922;-96
2023/02/16 12:33:55;;;;;;;;;;;;;;;;;;6250741;22;19916;-95
2023/02/16 12:39:32;;;;;;;;;;;;;;;;;;;;;
2023/02/16 12:42:20;;;;;;;;;;;;;;;;;;;;;
2023/02/16 15:24:42;;;;;;;;;;;;;;;;;;6201336;22;2034353;-94
2023/02/16 15:35:33;;;;;;;;;;;;;;;;;;6264738;22;19951;-94
2023/02/16 15:38:02;;;;;;;;;;;;;;;;;;6223074;22;19915;-96
2023/02/16 15:40:34;;;;;;;;;;;;;;;;;;6222177;23;19923;-94
2023/02/16 15:46:14;;;;;;;;;;;;;;;;;;;;;
2023/02/16 15:56:53;;;;;;;;;;;;;;;;;;6159663;23;19991;-95
2023/02/16 15:59:19;;;;;;;;;;;;;;;;;;6158619;23;19916;-91
2023/02/16 16:01:46;;;;;;;;;;;;;;;;;;6169385;23;19969;-91
2023/02/16 16:04:12;;;;;;;;;;;;;;;;;;6194849;23;19915;-91
2023/02/16 16:06:38;;;;;;;;;;;;;;;;;;6219915;23;20287;-92
2023/02/16 16:09:07;;;;;;;;;;;;;;;;;;6195102;23;19916;-92
2023/02/16 16:11:33;;;;;;;;;;;;;;;;;;6220580;23;19964;-91
2023/02/16 16:13:59;;;;;;;;;;;;;;;;;;6194546;23;19927;-91
2023/02/16 16:16:26;;;;;;;;;;;;;;;;;;6219745;23;19919;-90
2023/02/16 16:24:33;;;;;;;;;;;;;;;;;;6278107;22;19927;-94
2023/02/16 16:26:59;;;;;;;;;;;;;;;;;;6250924;22;19930;-93
2023/02/16 16:29:28;;;;;;;;;;;;;;;;;;6204534;23;19990;-95
2023/02/16 16:32:12;;;;;;;;;;;;;;;;;;6195053;23;19956;-94
2023/02/16 16:34:38;;;;;;;;;;;;;;;;;;6199491;23;19919;-95
2023/02/16 16:37:15;;;;;;;;;;;;;;;;;;6223750;23;20317;-92
2023/02/16 16:39:41;;;;;;;;;;;;;;;;;;6220306;23;19946;-92
2023/02/16 16:42:07;;;;;;;;;;;;;;;;;;6220949;23;19957;-93
2023/02/16 16:44:33;;;;;;;;;;;;;;;;;;6219938;23;20218;-93
2023/02/16 16:47:02;;;;;;;;;;;;;;;;;;6194875;23;19920;-92
2023/02/16 16:49:28;;;;;;;;;;;;;;;;;;6193679;23;19915;-93
2023/02/16 16:51:56;;;;;;;;;;;;;;;;;;6220501;23;19915;-95
2023/02/16 16:57:12;;;;;;;;;;;;;;;;;;;;;
2023/02/16 17:04:47;;;;;;;;;;;;;;;;;;6277040;22;19969;-93
2023/02/16 17:07:22;;;;;;;;;;;;;;;;;;6225333;22;19919;-92
2023/02/16 17:09:48;;;;;;;;;;;;;;;;;;6224443;23;19922;-95
2023/02/16 17:12:21;;;;;;;;;;;;;;;;;;6220893;23;19916;-95
2023/02/16 17:14:49;;;;;;;;;;;;;;;;;;6194988;23;19919;-93
2023/02/16 17:17:15;;;;;;;;;;;;;;;;;;6194586;23;19922;-95
2023/02/16 17:19:41;;;;;;;;;;;;;;;;;;6219154;23;19990;-94
2023/02/16 17:22:07;;;;;;;;;;;;;;;;;;6219737;23;19954;-93
2023/02/16 17:24:33;;;;;;;;;;;;;;;;;;6194767;23;19920;-93
2023/02/16 17:26:59;;;;;;;;;;;;;;;;;;6194631;23;19919;-94
2023/02/16 17:29:28;;;;;;;;;;;;;;;;;;6194544;23;19923;-94
2023/02/16 17:32:10;;;;;;;;;;;;;;;;;;;;;
2023/02/16 17:34:36;;;;;;;;;;;;;;;;;;6219810;23;19927;-96
2023/02/16 17:37:06;;;;;;;;;;;;;;;;;;6194916;23;20015;-95
2023/02/16 17:42:40;;;;;;;;;;;;;;;;;;;;;
2023/02/16 17:45:19;;;;;;;;;;;;;;;;;;;;;
2023/02/16 17:48:08;;;;;;;;;;;;;;;;;;6246245;22;19928;-90
2023/02/16 17:50:37;;;;;;;;;;;;;;;;;;6192869;23;19961;-91
2023/02/16 17:53:03;;;;;;;;;;;;;;;;;;6193601;23;19919;-91
2023/02/16 17:55:29;;;;;;;;;;;;;;;;;;6194467;23;19919;-91
2023/02/16 17:57:56;;;;;;;;;;;;;;;;;;6219089;22;19916;-91
2023/02/16 18:00:22;;;;;;;;;;;;;;;;;;6220220;23;19916;-91
2023/02/16 18:02:48;;;;;;;;;;;;;;;;;;6221005;23;19920;-91
2023/02/16 18:05:14;;;;;;;;;;;;;;;;;;6246338;23;19966;-91
2023/02/16 18:07:40;;;;;;;;;;;;;;;;;;6246304;23;20232;-91
2023/02/16 18:10:07;;;;;;;;;;;;;;;;;;6245661;22;20322;-91
2023/02/16 18:12:34;;;;;;;;;;;;;;;;;;6247592;22;19959;-91
2023/02/16 18:15:00;;;;;;;;;;;;;;;;;;6246270;23;20333;-91
2023/02/16 18:17:26;;;;;;;;;;;;;;;;;;6221702;23;19916;-94
2023/02/16 18:19:54;;;;;;;;;;;;;;;;;;6246665;22;19919;-93
2023/02/16 18:22:20;;;;;;;;;;;;;;;;;;6221285;23;19923;-93
2023/02/16 18:24:46;;;;;;;;;;;;;;;;;;6221208;23;19915;-92
2023/02/16 18:27:12;;;;;;;;;;;;;;;;;;6220570;23;19915;-91
2023/02/16 18:29:38;;;;;;;;;;;;;;;;;;6220374;23;20176;-91
2023/02/16 18:32:04;;;;;;;;;;;;;;;;;;6246382;23;19956;-95
2023/02/16 18:34:31;;;;;;;;;;;;;;;;;;6220994;23;20214;-92
2023/02/16 18:36:57;;;;;;;;;;;;;;;;;;6246066;23;20333;-92
2023/02/16 18:39:23;;;;;;;;;;;;;;;;;;6221066;23;20091;-92
2023/02/16 18:41:52;;;;;;;;;;;;;;;;;;6246507;23;19916;-92
2023/02/16 18:44:18;;;;;;;;;;;;;;;;;;6246072;23;20240;-91
2023/02/16 18:46:44;;;;;;;;;;;;;;;;;;6220847;23;19961;-93
2023/02/16 18:49:10;;;;;;;;;;;;;;;;;;6220164;23;19922;-91
2023/02/16 18:51:36;;;;;;;;;;;;;;;;;;6220155;23;19915;-91
2023/02/16 18:54:02;;;;;;;;;;;;;;;;;;6220165;23;19920;-91
2023/02/16 18:56:28;;;;;;;;;;;;;;;;;;6245677;23;19915;-91
2023/02/16 18:58:54;;;;;;;;;;;;;;;;;;6246074;22;19921;-92
2023/02/16 19:01:20;;;;;;;;;;;;;;;;;;6220296;23;19943;-92
2023/02/16 19:03:46;;;;;;;;;;;;;;;;;;6220285;23;19942;-91
2023/02/16 19:06:11;;;;;;;;;;;;;;;;;;6220305;23;19961;-91
2023/02/16 19:08:37;;;;;;;;;;;;;;;;;;6244762;22;19921;-92
2023/02/16 19:11:03;;;;;;;;;;;;;;;;;;6245834;23;19950;-92
2023/02/16 19:13:29;;;;;;;;;;;;;;;;;;6245879;23;19942;-91
2023/02/16 19:15:55;;;;;;;;;;;;;;;;;;6220288;23;19973;-92
2023/02/16 19:18:21;;;;;;;;;;;;;;;;;;6245415;22;20185;-92
2023/02/16 19:20:48;;;;;;;;;;;;;;;;;;6245530;23;20420;-91
2023/02/16 19:23:14;;;;;;;;;;;;;;;;;;6245203;23;19916;-91
2023/02/16 19:25:40;;;;;;;;;;;;;;;;;;6220306;23;19916;-91
2023/02/16 19:28:06;;;;;;;;;;;;;;;;;;6245508;22;19923;-92
2023/02/16 19:30:34;;;;;;;;;;;;;;;;;;6245217;23;20329;-92
2023/02/16 19:33:01;;;;;;;;;;;;;;;;;;6247164;23;19930;-93
2023/02/16 19:35:27;;;;;;;;;;;;;;;;;;6221296;23;19915;-94
2023/02/16 19:38:03;;;;;;;;;;;;;;;;;;;;;
2023/02/16 19:40:35;;;;;;;;;;;;;;;;;;6248526;23;19942;-96
2023/02/16 19:43:01;;;;;;;;;;;;;;;;;;6246399;23;19958;-93
2023/02/16 19:45:27;;;;;;;;;;;;;;;;;;6220239;23;19927;-94
2023/02/16 19:47:53;;;;;;;;;;;;;;;;;;6246131;22;19904;-95
2023/02/16 19:50:19;;;;;;;;;;;;;;;;;;6246153;23;19919;-94
2023/02/16 19:52:45;;;;;;;;;;;;;;;;;;6245756;23;20186;-93
2023/02/16 19:55:11;;;;;;;;;;;;;;;;;;6220288;23;19954;-93
2023/02/16 19:57:37;;;;;;;;;;;;;;;;;;6220690;23;19916;-91
2023/02/16 20:00:04;;;;;;;;;;;;;;;;;;6219275;23;19919;-91
2023/02/16 20:02:30;;;;;;;;;;;;;;;;;;6219059;23;19915;-91
2023/02/16 20:04:56;;;;;;;;;;;;;;;;;;6194706;23;19938;-93
2023/02/16 20:07:22;;;;;;;;;;;;;;;;;;6195024;23;19970;-92
2023/02/16 20:09:48;;;;;;;;;;;;;;;;;;6220608;23;20305;-92
2023/02/16 20:12:14;;;;;;;;;;;;;;;;;;6195174;23;20244;-93
2023/02/16 20:14:40;;;;;;;;;;;;;;;;;;6193731;23;20245;-90
2023/02/16 20:17:06;;;;;;;;;;;;;;;;;;6194352;23;19922;-91
2023/02/16 20:19:32;;;;;;;;;;;;;;;;;;6193829;23;19947;-91
2023/02/16 20:21:58;;;;;;;;;;;;;;;;;;6193914;23;19916;-91
2023/02/16 20:24:23;;;;;;;;;;;;;;;;;;6194085;23;19920;-92
2023/02/16 20:26:50;;;;;;;;;;;;;;;;;;6219191;23;19920;-92
2023/02/16 20:29:16;;;;;;;;;;;;;;;;;;6193978;23;19934;-93
2023/02/16 20:31:42;;;;;;;;;;;;;;;;;;6219112;23;19915;-90
2023/02/16 20:34:08;;;;;;;;;;;;;;;;;;6217986;23;20260;-91
2023/02/16 20:36:34;;;;;;;;;;;;;;;;;;6193952;23;19916;-91
2023/02/16 20:39:00;;;;;;;;;;;;;;;;;;6193965;23;19926;-91
2023/02/16 20:41:26;;;;;;;;;;;;;;;;;;6218340;23;19966;-91
2023/02/16 20:43:52;;;;;;;;;;;;;;;;;;6194144;23;19923;-91
2023/02/16 20:46:18;;;;;;;;;;;;;;;;;;6217524;23;19916;-91
2023/02/16 20:48:44;;;;;;;;;;;;;;;;;;6194134;23;19916;-90
2023/02/16 20:51:11;;;;;;;;;;;;;;;;;;6193462;23;20356;-91
2023/02/16 20:53:37;;;;;;;;;;;;;;;;;;6194515;23;19927;-91
2023/02/16 20:56:03;;;;;;;;;;;;;;;;;;6218766;23;19915;-90
2023/02/16 20:58:29;;;;;;;;;;;;;;;;;;6193832;23;20013;-91
2023/02/16 21:00:56;;;;;;;;;;;;;;;;;;6218621;23;19920;-92
2023/02/16 21:03:22;;;;;;;;;;;;;;;;;;6225542;23;19959;-92
2023/02/16 21:08:49;;;;;;;;;;;;;;;;;;6247786;22;20355;-96
2023/02/16 21:11:18;;;;;;;;;;;;;;;;;;6220678;23;19922;-94
2023/02/16 21:13:53;;;;;;;;;;;;;;;;;;6219943;23;19926;-95
2023/02/16 21:16:29;;;;;;;;;;;;;;;;;;6244962;23;19915;-96
2023/02/16 21:19:06;;;;;;;;;;;;;;;;;;6247006;22;19916;-96
2023/02/16 21:21:32;;;;;;;;;;;;;;;;;;6219992;23;19922;-92
2023/02/16 21:23:58;;;;;;;;;;;;;;;;;;6218771;23;19955;-91
2023/02/16 21:26:24;;;;;;;;;;;;;;;;;;6244622;23;19994;-91
2023/02/16 21:28:50;;;;;;;;;;;;;;;;;;6244660;22;19930;-89
2023/02/16 21:31:17;;;;;;;;;;;;;;;;;;6245920;23;20292;-91
2023/02/16 21:33:42;;;;;;;;;;;;;;;;;;6218710;23;19974;-91
2023/02/16 21:36:08;;;;;;;;;;;;;;;;;;6220165;23;19926;-91
2023/02/16 21:38:34;;;;;;;;;;;;;;;;;;6221281;23;19957;-91
2023/02/16 21:43:45;;;;;;;;;;;;;;;;;;6246228;23;19915;-91
2023/02/16 21:46:11;;;;;;;;;;;;;;;;;;6246454;23;20004;-90
2023/02/16 21:48:47;;;;;;;;;;;;;;;;;;6220419;23;20279;-91
2023/02/16 21:51:13;;;;;;;;;;;;;;;;;;6220129;23;19996;-92
2023/02/16 21:53:38;;;;;;;;;;;;;;;;;;6220265;23;19924;-91
2023/02/16 21:56:18;;;;;;;;;;;;;;;;;;6246067;23;19922;-91
2023/02/16 21:58:47;;;;;;;;;;;;;;;;;;6246583;22;19916;-95
2023/02/16 22:01:19;;;;;;;;;;;;;;;;;;6247069;22;19920;-96
2023/02/16 22:03:59;;;;;;;;;;;;;;;;;;;;;
2023/02/16 22:06:46;;;;;;;;;;;;;;;;;;6240273;23;20309;-92
2023/02/16 22:09:14;;;;;;;;;;;;;;;;;;6196623;23;19919;-94
2023/02/16 22:11:40;;;;;;;;;;;;;;;;;;6221829;23;19915;-92
2023/02/16 22:14:06;;;;;;;;;;;;;;;;;;6197021;23;20007;-92
2023/02/16 22:16:32;;;;;;;;;;;;;;;;;;6221806;23;20292;-92
2023/02/16 22:18:58;;;;;;;;;;;;;;;;;;6196968;23;20325;-93
2023/02/16 22:21:24;;;;;;;;;;;;;;;;;;6221980;23;19916;-91
2023/02/16 22:23:49;;;;;;;;;;;;;;;;;;6222034;23;19950;-93
2023/02/16 22:26:15;;;;;;;;;;;;;;;;;;6196466;23;20320;-93
2023/02/16 22:28:41;;;;;;;;;;;;;;;;;;6222026;23;19983;-93
2023/02/16 22:31:07;;;;;;;;;;;;;;;;;;6196030;23;19916;-93
2023/02/16 22:33:33;;;;;;;;;;;;;;;;;;6196445;23;19922;-93
2023/02/16 22:35:59;;;;;;;;;;;;;;;;;;6195588;23;19919;-93
2023/02/16 22:38:25;;;;;;;;;;;;;;;;;;6196258;23;19950;-93
2023/02/16 22:40:51;;;;;;;;;;;;;;;;;;6196905;23;19915;-94
2023/02/16 22:43:17;;;;;;;;;;;;;;;;;;6221711;23;19965;-93
2023/02/16 22:45:43;;;;;;;;;;;;;;;;;;6196182;23;19915;-93
2023/02/16 22:48:09;;;;;;;;;;;;;;;;;;6196487;23;20249;-93
2023/02/16 22:50:35;;;;;;;;;;;;;;;;;;6196394;23;19919;-93
2023/02/16 22:53:01;;;;;;;;;;;;;;;;;;6196502;23;19976;-92
2023/02/16 22:55:27;;;;;;;;;;;;;;;;;;6196251;23;19919;-92
2023/02/16 22:57:53;;;;;;;;;;;;;;;;;;6221631;22;19922;-92
2023/02/16 23:00:19;;;;;;;;;;;;;;;;;;6195895;23;19919;-93
2023/02/16 23:02:45;;;;;;;;;;;;;;;;;;6235813;23;19958;-92
2023/02/16 23:05:11;;;;;;;;;;;;;;;;;;6221088;23;20383;-93
2023/02/16 23:07:37;;;;;;;;;;;;;;;;;;6221483;23;19915;-93
2023/02/16 23:10:02;;;;;;;;;;;;;;;;;;6221304;23;19969;-93
2023/02/16 23:12:28;;;;;;;;;;;;;;;;;;6221424;23;19915;-92
2023/02/16 23:14:54;;;;;;;;;;;;;;;;;;6220050;23;19923;-93
2023/02/16 23:17:20;;;;;;;;;;;;;;;;;;6221280;23;20325;-92
2023/02/16 23:19:46;;;;;;;;;;;;;;;;;;6220628;23;19947;-93
2023/02/16 23:22:12;;;;;;;;;;;;;;;;;;6221289;23;19986;-92
2023/02/16 23:24:38;;;;;;;;;;;;;;;;;;6246539;23;19923;-92
2023/02/16 23:27:04;;;;;;;;;;;;;;;;;;6246227;23;19923;-92
2023/02/16 23:29:30;;;;;;;;;;;;;;;;;;6220741;23;19987;-92
2023/02/16 23:31:56;;;;;;;;;;;;;;;;;;6221192;23;19915;-92
2023/02/16 23:34:22;;;;;;;;;;;;;;;;;;6247286;23;19961;-92
2023/02/16 23:36:48;;;;;;;;;;;;;;;;;;6220455;23;19973;-92
2023/02/16 23:39:14;;;;;;;;;;;;;;;;;;6246143;22;19915;-93
2023/02/16 23:41:40;;;;;;;;;;;;;;;;;;6221068;23;19915;-92
2023/02/16 23:44:06;;;;;;;;;;;;;;;;;;6221237;23;19915;-92
2023/02/16 23:46:32;;;;;;;;;;;;;;;;;;6246211;23;19916;-92
2023/02/16 23:48:57;;;;;;;;;;;;;;;;;;6220799;23;19915;-93
2023/02/16 23:51:23;;;;;;;;;;;;;;;;;;6220558;23;19925;-93
2023/02/16 23:53:49;;;;;;;;;;;;;;;;;;6245386;23;19916;-92
2023/02/16 23:56:15;;;;;;;;;;;;;;;;;;6220822;23;19919;-92
2023/02/16 23:58:41;;;;;;;;;;;;;;;;;;6245783;22;19976;-93
